Time;durP1;ratioP1;P1;durP2;ratioP2;P2;SDS_P1;SDS_P2;PMS_P1;PMS_P2;Temp;Humidity;BMP_temperature;BMP_pressure;BME280_temperature;BME280_humidity;BME280_pressure;Samples;Min_cycle;Max_cycle;Signal;HPM_P1;HPM_P2
2021/11/19 00:01:27;;;;;;;20.23;16.17;;;;;;;11.94;94.40;102049.28;6216255;28;20194;-65
2021/11/19 00:04:48;;;;;;;22.67;14.63;;;;;;;11.87;94.15;102040.53;6207700;28;20313;-65
2021/11/19 00:08:09;;;;;;;21.43;16.03;;;;;;;12.08;93.54;102057.19;6210792;28;20236;-65
2021/11/19 00:11:34;;;;;;;18.03;15.50;;;;;;;12.17;93.38;102041.56;6212370;28;20623;-64
2021/11/19 00:14:55;;;;;;;21.67;14.80;;;;;;;12.00;93.36;102039.75;6213451;28;20232;-64
2021/11/19 00:18:20;;;;;;;20.93;15.13;;;;;;;11.93;94.27;102045.81;6216650;28;20260;-63
2021/11/19 00:21:43;;;;;;;23.97;14.30;;;;;;;11.92;94.26;102051.91;6210448;28;20206;-65
2021/11/19 00:25:05;;;;;;;19.53;14.73;;;;;;;12.04;94.04;102055.44;6211471;28;20229;-65
2021/11/19 00:28:27;;;;;;;19.53;13.23;;;;;;;11.98;93.33;102058.88;6199558;28;20324;-65
2021/11/19 00:31:48;;;;;;;17.33;14.23;;;;;;;12.06;93.30;102065.03;6210546;28;20270;-64
2021/11/19 00:35:13;;;;;;;17.60;15.00;;;;;;;12.11;92.38;102042.41;6212431;28;20713;-64
2021/11/19 00:38:36;;;;;;;18.37;13.90;;;;;;;12.31;92.16;102071.25;6199059;28;20233;-65
2021/11/19 00:41:57;;;;;;;17.13;12.87;;;;;;;12.08;92.46;102065.00;6213161;28;20682;-64
2021/11/19 00:45:20;;;;;;;15.20;12.67;;;;;;;12.22;92.03;102076.41;6213181;28;20233;-65
2021/11/19 00:48:43;;;;;;;28.43;14.43;;;;;;;12.33;91.36;102066.88;6206946;28;20233;-64
2021/11/19 00:52:07;;;;;;;22.10;12.43;;;;;;;12.25;91.87;102070.31;6207110;28;20201;-64
2021/11/19 00:55:29;;;;;;;22.10;13.27;;;;;;;12.18;91.79;102079.88;6210424;28;20229;-64
2021/11/19 00:58:53;;;;;;;24.80;13.57;;;;;;;12.07;92.50;102084.19;6206020;28;20262;-64
2021/11/19 01:02:16;;;;;;;15.97;12.93;;;;;;;12.11;91.92;102088.53;6213946;28;20240;-64
2021/11/19 01:05:38;;;;;;;14.37;11.80;;;;;;;12.26;91.32;102095.59;6191378;28;20261;-64
2021/11/19 01:09:04;;;;;;;15.20;11.53;;;;;;;12.19;91.18;102087.72;6210314;28;20509;-65
2021/11/19 01:12:28;;;;;;;18.77;13.47;;;;;;;12.54;90.01;102096.53;6211142;28;20312;-65
2021/11/19 01:15:52;;;;;;;18.27;12.97;;;;;;;12.54;89.40;102097.44;6212081;28;20246;-64
2021/11/19 01:19:16;;;;;;;14.57;11.77;;;;;;;12.37;90.06;102102.59;6210184;28;20291;-64
2021/11/19 01:22:40;;;;;;;13.13;11.27;;;;;;;12.47;89.47;102102.63;6213077;28;20235;-64
2021/11/19 01:26:06;;;;;;;19.43;11.17;;;;;;;12.47;89.64;102102.63;6210716;28;20548;-63
2021/11/19 01:29:27;;;;;;;11.93;10.60;;;;;;;12.34;90.36;102096.50;6223722;28;20213;-65
2021/11/19 01:32:48;;;;;;;13.30;11.57;;;;;;;12.57;89.33;102099.19;6219151;28;20240;-65
2021/11/19 01:36:35;;;;;;;14.67;10.23;;;;;;;12.27;89.81;102099.94;6215010;28;20233;-65
2021/11/19 01:40:19;;;;;;;14.03;9.73;;;;;;;12.41;89.24;102090.44;6218970;28;20771;-64
2021/11/19 01:43:56;;;;;;;15.90;10.47;;;;;;;12.38;90.46;102080.81;6216350;28;20249;-65
2021/11/19 01:47:17;;;;;;;12.00;9.67;;;;;;;12.36;89.89;102090.38;6234605;28;20209;-65
2021/11/19 01:50:42;;;;;;;12.47;10.10;;;;;;;12.37;89.94;102078.22;6223838;28;20236;-65
2021/11/19 01:54:07;;;;;;;17.10;10.63;;;;;;;12.33;90.81;102079.94;6223142;28;20315;-65
2021/11/19 01:57:34;;;;;;;12.57;10.30;;;;;;;12.33;90.96;102093.00;6222842;28;20602;-63
2021/11/19 02:01:00;;;;;;;14.80;10.53;;;;;;;12.16;91.09;102092.06;6218319;28;20221;-64
2021/11/19 02:04:26;;;;;;;19.23;11.23;;;;;;;12.50;89.59;102087.81;6235677;28;20235;-64
2021/11/19 02:07:49;;;;;;;15.47;10.20;;;;;;;12.24;90.52;102095.56;6241052;28;20458;-65
2021/11/19 02:11:26;;;;;;;14.63;10.20;;;;;;;12.21;89.84;102085.09;6222086;28;20220;-65
2021/11/19 02:14:55;;;;;;;14.93;9.23;;;;;;;12.39;89.24;102095.63;6240447;28;20664;-64
2021/11/19 02:18:30;;;;;;;10.40;8.73;;;;;;;12.28;90.09;102086.88;6223632;28;20240;-64
2021/11/19 02:21:55;;;;;;;12.73;8.90;;;;;;;12.33;89.75;102092.13;6237302;28;20218;-65
2021/11/19 02:25:22;;;;;;;17.20;9.57;;;;;;;12.30;89.67;102090.38;6232873;28;20228;-64
2021/11/19 02:28:46;;;;;;;12.77;8.90;;;;;;;12.45;89.08;102094.78;6239807;28;20228;-64
2021/11/19 02:32:12;;;;;;;15.10;10.13;;;;;;;12.51;89.08;102099.16;6238258;28;20188;-63
2021/11/19 02:35:48;;;;;;;13.53;10.20;;;;;;;12.47;89.15;102093.06;6219137;28;20225;-64
2021/11/19 02:39:16;;;;;;;14.93;9.00;;;;;;;12.49;88.70;102095.69;6241734;28;20228;-66
2021/11/19 02:42:44;;;;;;;11.37;8.50;;;;;;;12.54;88.83;102096.53;6221988;28;20201;-64
2021/11/19 02:46:07;;;;;;;12.07;8.13;;;;;;;12.55;88.25;102093.09;6226377;28;20224;-65
2021/11/19 02:49:28;;;;;;;18.27;10.70;;;;;;;12.60;89.03;102099.16;6238589;28;20567;-65
2021/11/19 02:52:54;;;;;;;12.93;9.13;;;;;;;12.40;89.16;102099.97;6225613;28;20231;-65
2021/11/19 02:56:16;;;;;;;17.00;11.97;;;;;;;12.33;88.50;102106.06;6225777;28;20213;-64
2021/11/19 02:59:38;;;;;;;13.37;9.83;;;;;;;12.57;88.75;102109.63;6239924;28;20260;-64
2021/11/19 03:02:59;;;;;;;20.17;9.50;;;;;;;12.38;88.94;102099.09;6231548;28;20598;-64
2021/11/19 03:06:20;;;;;;;18.97;9.67;;;;;;;12.39;89.19;102105.22;6240830;28;20593;-63
2021/11/19 03:09:45;;;;;;;15.00;10.23;;;;;;;12.54;88.74;102100.06;6222190;28;20225;-65
2021/11/19 03:13:08;;;;;;;19.63;10.27;;;;;;;12.53;88.82;102107.88;6234818;28;20909;-64
2021/11/19 03:16:29;;;;;;;15.83;9.33;;;;;;;12.37;88.66;102097.38;6224774;28;20194;-63
2021/11/19 03:19:50;;;;;;;17.70;10.33;;;;;;;12.66;88.40;102107.06;6235411;28;20216;-65
2021/11/19 03:23:12;;;;;;;12.93;8.43;;;;;;;12.50;88.01;102107.84;6224671;28;20251;-63
2021/11/19 03:26:36;;;;;;;17.17;8.33;;;;;;;12.44;88.96;102110.47;6241264;28;20192;-63
2021/11/19 03:29:58;;;;;;;16.70;10.37;;;;;;;12.47;88.55;102118.31;6231405;28;20225;-64
2021/11/19 03:33:22;;;;;;;14.53;8.70;;;;;;;12.44;88.94;102113.06;6225683;28;20236;-65
2021/11/19 03:36:48;;;;;;;9.20;8.17;;;;;;;12.76;87.83;102114.03;6226383;28;20218;-64
2021/11/19 03:40:15;;;;;;;10.47;7.50;;;;;;;12.78;87.30;102116.66;6236213;28;20236;-64
2021/11/19 03:43:40;;;;;;;15.30;8.30;;;;;;;12.61;87.33;102116.63;6233161;28;20228;-64
2021/11/19 03:47:05;;;;;;;14.40;8.00;;;;;;;12.42;87.86;102110.44;6233720;28;20201;-63
2021/11/19 03:50:31;;;;;;;11.03;6.97;;;;;;;12.64;87.19;102113.13;6221154;28;20660;-65
2021/11/19 03:53:52;;;;;;;11.80;6.80;;;;;;;12.74;86.66;102110.56;6236701;28;20240;-65
2021/11/19 03:57:15;;;;;;;13.00;6.83;;;;;;;12.76;86.98;102111.44;6236870;28;20208;-64
2021/11/19 04:00:41;;;;;;;16.10;7.57;;;;;;;12.52;87.88;102116.56;6214996;28;20236;-64
2021/11/19 04:04:04;;;;;;;9.17;6.60;;;;;;;12.61;87.40;102114.00;6242379;28;20336;-65
2021/11/19 04:07:29;;;;;;;11.20;6.80;;;;;;;12.60;87.30;102118.38;6236605;28;20205;-65
2021/11/19 04:10:51;;;;;;;17.07;7.70;;;;;;;12.68;86.52;102122.72;6234477;28;20549;-65
2021/11/19 04:14:12;;;;;;;18.53;7.20;;;;;;;12.53;87.62;102126.19;6225487;28;20228;-64
2021/11/19 04:17:34;;;;;;;10.30;6.60;;;;;;;12.23;87.75;102122.53;6239904;28;20200;-64
2021/11/19 04:20:56;;;;;;;9.23;6.93;;;;;;;12.70;86.36;102126.25;6222553;28;20216;-64
2021/11/19 04:24:22;;;;;;;13.60;6.83;;;;;;;12.64;86.74;102127.09;6224162;28;20252;-65
2021/11/19 04:27:44;;;;;;;17.33;7.13;;;;;;;12.54;86.12;102125.28;6221850;28;20197;-64
2021/11/19 04:31:20;;;;;;;9.67;7.13;;;;;;;12.76;85.40;102140.19;6233243;28;20287;-65
2021/11/19 04:34:42;;;;;;;13.73;6.60;;;;;;;12.61;87.01;102127.06;6232025;28;20601;-65
2021/11/19 04:38:04;;;;;;;20.77;9.77;;;;;;;12.61;86.31;102130.53;6222993;28;21621;-63
2021/11/19 04:41:26;;;;;;;12.10;6.37;;;;;;;12.85;85.22;102151.53;6221958;28;20224;-63
2021/11/19 04:44:47;;;;;;;11.60;6.33;;;;;;;12.69;85.60;102148.88;6223244;28;20863;-64
2021/11/19 04:48:09;;;;;;;10.60;6.27;;;;;;;12.79;85.09;102147.16;6223123;28;20185;-65
2021/11/19 04:51:34;;;;;;;12.83;7.67;;;;;;;12.71;85.19;102154.97;6234090;28;20212;-64
2021/11/19 04:54:55;;;;;;;13.37;7.43;;;;;;;12.85;85.29;102159.38;6223661;28;20593;-65
2021/11/19 04:58:15;;;;;;;17.50;7.47;;;;;;;12.60;86.03;102157.56;6228799;28;20692;-65
2021/11/19 05:01:40;;;;;;;12.60;7.27;;;;;;;12.56;86.13;102149.69;6219551;28;20260;-64
2021/11/19 05:05:08;;;;;;;13.90;7.13;;;;;;;12.29;86.65;102151.34;6223044;28;20293;-64
2021/11/19 05:08:34;;;;;;;16.03;9.27;;;;;;;12.63;86.55;102161.06;6222490;28;20605;-65
2021/11/19 05:11:59;;;;;;;9.43;7.67;;;;;;;12.82;86.28;102156.78;6233728;28;20287;-64
2021/11/19 05:15:20;;;;;;;15.73;9.20;;;;;;;12.43;87.54;102163.56;6239013;28;20232;-65
2021/11/19 05:18:44;;;;;;;11.83;7.87;;;;;;;12.35;88.28;102151.34;6237828;28;20296;-64
2021/11/19 05:22:07;;;;;;;9.70;7.90;;;;;;;12.45;88.52;102143.56;6220569;28;20200;-64
2021/11/19 05:25:32;;;;;;;17.67;9.00;;;;;;;12.69;86.95;102146.25;6223160;28;20541;-65
2021/11/19 05:28:53;;;;;;;10.70;7.77;;;;;;;12.30;88.70;102140.00;6221960;28;20239;-64
2021/11/19 05:32:15;;;;;;;14.03;8.90;;;;;;;12.40;88.42;102135.69;6216117;28;20370;-64
2021/11/19 05:35:37;;;;;;;12.27;8.00;;;;;;;12.62;87.71;102139.28;6210226;28;20236;-65
2021/11/19 05:39:00;;;;;;;13.37;7.40;;;;;;;12.53;87.61;102139.25;6228487;28;20223;-66
2021/11/19 05:42:22;;;;;;;9.30;6.73;;;;;;;12.35;88.73;102135.69;6240950;28;20209;-64
2021/11/19 05:45:43;;;;;;;10.53;6.37;;;;;;;12.68;87.50;102134.06;6222748;28;20228;-65
2021/11/19 05:49:18;;;;;;;16.33;8.40;;;;;;;12.38;89.52;102143.50;6223987;28;20609;-64
2021/11/19 05:52:41;;;;;;;16.43;7.27;;;;;;;12.58;88.87;102134.88;6234710;28;20236;-63
2021/11/19 05:56:04;;;;;;;12.80;9.07;;;;;;;12.36;89.53;102137.41;6208637;28;20318;-64
2021/11/19 05:59:27;;;;;;;17.27;8.47;;;;;;;12.11;90.73;102135.53;6238461;28;20224;-65
2021/11/19 06:03:02;;;;;;;19.40;8.33;;;;;;;12.36;89.37;102126.97;6222676;28;20232;-65
2021/11/19 06:06:24;;;;;;;12.60;7.10;;;;;;;12.46;89.33;102132.22;6225072;28;20193;-66
2021/11/19 06:10:02;;;;;;;21.20;7.80;;;;;;;12.33;89.62;102140.03;6220360;28;20228;-65
2021/11/19 06:13:26;;;;;;;13.93;7.00;;;;;;;12.38;89.91;102143.50;6230114;28;20513;-64
2021/11/19 06:16:51;;;;;;;11.73;6.93;;;;;;;12.37;89.23;102139.16;6236280;28;20229;-66
2021/11/19 06:20:15;;;;;;;10.70;7.27;;;;;;;12.51;88.64;102154.03;6240906;28;20331;-65
2021/11/19 06:23:41;;;;;;;13.20;7.53;;;;;;;12.33;90.27;102158.31;6230445;28;20244;-65
2021/11/19 06:27:02;;;;;;;10.40;7.77;;;;;;;12.47;89.24;102155.75;6224043;28;20213;-65
2021/11/19 06:30:24;;;;;;;14.07;6.50;;;;;;;12.43;89.44;102158.34;6219461;28;20311;-65
2021/11/19 06:33:47;;;;;;;9.37;6.60;;;;;;;12.25;89.70;102162.59;6230122;28;20718;-64
2021/11/19 06:37:08;;;;;;;11.00;7.17;;;;;;;12.77;88.22;102149.75;6218270;28;20304;-65
2021/11/19 06:40:46;;;;;;;16.43;7.73;;;;;;;12.41;89.92;102169.66;6209115;28;20221;-65
2021/11/19 06:44:27;;;;;;;18.33;7.10;;;;;;;12.33;89.89;102162.63;6229161;28;20236;-65
2021/11/19 06:48:17;;;;;;;11.60;6.90;;;;;;;12.82;88.26;102162.84;6207094;28;20256;-65
2021/11/19 06:51:57;;;;;;;12.90;7.73;;;;;;;12.41;90.27;102168.81;6224927;28;20204;-65
2021/11/19 06:55:33;;;;;;;17.53;7.57;;;;;;;12.33;90.26;102157.41;6239445;28;20224;-65
2021/11/19 06:59:10;;;;;;;9.70;6.97;;;;;;;12.48;89.88;102167.94;6232650;28;20225;-64
2021/11/19 07:02:31;;;;;;;11.93;6.60;;;;;;;12.68;88.94;102169.75;6223907;28;20232;-65
2021/11/19 07:05:52;;;;;;;11.60;7.13;;;;;;;12.40;89.79;102170.50;6219536;28;20225;-65
2021/11/19 07:09:16;;;;;;;13.97;8.33;;;;;;;12.50;89.52;102170.56;6220225;28;20229;-64
2021/11/19 07:12:38;;;;;;;18.53;7.73;;;;;;;12.65;88.87;102165.41;6232231;28;20216;-66
2021/11/19 07:16:01;;;;;;;16.60;7.60;;;;;;;12.48;89.57;102177.53;6233837;28;20216;-65
2021/11/19 07:19:23;;;;;;;14.13;7.27;;;;;;;12.58;89.03;102181.91;6211586;28;20236;-64
2021/11/19 07:22:45;;;;;;;10.97;7.50;;;;;;;12.89;87.76;102179.44;6218137;28;20247;-64
2021/11/19 07:26:07;;;;;;;10.03;6.83;;;;;;;12.71;87.60;102186.34;6237582;28;20605;-66
2021/11/19 07:29:29;;;;;;;15.27;7.93;;;;;;;12.78;87.56;102192.47;6216384;28;20256;-65
2021/11/19 07:33:10;;;;;;;12.53;6.07;;;;;;;12.61;88.43;102193.25;6224521;28;20201;-66
2021/11/19 07:36:50;;;;;;;14.40;7.13;;;;;;;12.72;87.42;102197.69;6228982;28;20224;-64
2021/11/19 07:40:42;;;;;;;12.83;6.07;;;;;;;12.71;87.41;102195.94;6228462;28;20232;-65
2021/11/19 07:44:20;;;;;;;12.33;5.77;;;;;;;12.47;88.13;102197.56;6222262;28;20228;-64
2021/11/19 07:47:48;;;;;;;8.73;5.87;;;;;;;12.73;87.45;102199.41;6222206;28;20193;-64
2021/11/19 07:51:11;;;;;;;11.43;6.03;;;;;;;12.52;88.96;102195.88;6221633;28;20213;-65
2021/11/19 07:54:32;;;;;;;10.53;5.83;;;;;;;12.60;88.35;102203.72;6221918;28;20256;-65
2021/11/19 07:57:53;;;;;;;12.73;6.13;;;;;;;12.66;88.07;102205.47;6239807;28;20189;-65
2021/11/19 08:01:16;;;;;;;10.60;5.73;;;;;;;12.62;88.52;102202.00;6226110;28;20523;-66
2021/11/19 08:04:37;;;;;;;12.17;5.63;;;;;;;12.61;88.60;102208.94;6222974;28;20233;-65
2021/11/19 08:08:05;;;;;;;12.20;5.53;;;;;;;12.52;88.77;102205.41;6208358;28;20200;-66
2021/11/19 08:11:29;;;;;;;10.20;5.77;;;;;;;12.48;89.08;102207.13;6220561;28;20951;-66
2021/11/19 08:14:50;;;;;;;10.80;6.73;;;;;;;12.66;88.64;102203.75;6207470;28;20267;-65
2021/11/19 08:18:17;;;;;;;14.47;6.80;;;;;;;12.62;88.25;102217.69;6207821;28;20193;-65
2021/11/19 08:21:38;;;;;;;13.20;6.53;;;;;;;12.82;88.52;102206.44;6218522;28;20213;-65
2021/11/19 08:24:59;;;;;;;15.13;7.03;;;;;;;12.71;88.39;102206.38;6216327;28;20233;-64
2021/11/19 08:28:20;;;;;;;12.20;6.20;;;;;;;13.04;86.88;102210.84;6213192;28;20874;-65
2021/11/19 08:31:42;;;;;;;12.43;6.60;;;;;;;12.69;88.25;102206.38;6229745;28;20953;-65
2021/11/19 08:35:05;;;;;;;11.20;9.73;;;;;;;12.80;87.58;102212.53;6229397;28;20236;-64
2021/11/19 08:38:28;;;;;;;13.17;6.80;;;;;;;12.74;88.27;102212.50;6230246;28;20236;-65
2021/11/19 08:41:49;;;;;;;8.87;5.43;;;;;;;12.84;87.40;102223.88;6231169;28;20507;-66
2021/11/19 08:45:10;;;;;;;12.47;6.50;;;;;;;13.27;85.89;102210.03;6228906;28;20221;-66
2021/11/19 08:48:33;;;;;;;13.43;7.47;;;;;;;13.18;85.67;102211.78;6237347;28;20229;-65
2021/11/19 08:51:56;;;;;;;15.20;9.87;;;;;;;12.95;86.60;102205.59;6238404;28;20561;-65
2021/11/19 08:55:18;;;;;;;11.80;7.13;;;;;;;12.87;86.51;102216.03;6235197;28;20228;-65
2021/11/19 08:58:42;;;;;;;17.03;12.50;;;;;;;12.84;87.84;102217.78;6236821;28;20815;-65
2021/11/19 09:02:05;;;;;;;15.20;9.50;;;;;;;12.98;86.88;102213.44;6236330;28;20288;-66
2021/11/19 09:05:27;;;;;;;9.77;7.37;;;;;;;12.96;87.03;102215.19;6235035;28;20224;-66
2021/11/19 09:08:50;;;;;;;10.83;6.70;;;;;;;13.16;86.16;102213.53;6236000;28;20332;-65
2021/11/19 09:12:11;;;;;;;16.93;7.20;;;;;;;13.05;87.25;102216.97;6239935;28;20560;-66
2021/11/19 09:15:33;;;;;;;9.57;7.00;;;;;;;13.04;86.79;102229.16;6236568;28;20641;-66
2021/11/19 09:19:08;;;;;;;10.63;6.30;;;;;;;13.15;86.61;102227.44;6239388;28;20221;-65
2021/11/19 09:22:35;;;;;;;10.70;7.00;;;;;;;13.02;86.32;102227.41;6224463;28;20253;-66
2021/11/19 09:26:03;;;;;;;8.33;6.87;;;;;;;12.92;87.18;102226.50;6223474;28;20224;-65
2021/11/19 09:29:28;;;;;;;10.47;6.23;;;;;;;12.96;87.58;102229.13;6237861;28;20225;-65
2021/11/19 09:32:52;;;;;;;10.57;7.40;;;;;;;13.13;87.03;102237.03;6237753;28;20197;-66
2021/11/19 09:36:13;;;;;;;9.37;6.10;;;;;;;12.84;87.88;102238.69;6239101;28;20212;-66
2021/11/19 09:39:34;;;;;;;8.07;6.97;;;;;;;12.98;86.93;102226.53;6236565;28;20494;-66
2021/11/19 09:43:02;;;;;;;15.23;7.80;;;;;;;13.06;87.31;102230.03;6231289;28;20845;-65
2021/11/19 09:47:03;;;;;;;11.53;6.10;;;;;;;13.10;86.22;102239.63;6241310;28;20196;-65
2021/11/19 09:51:17;;;;;;;13.17;7.73;;;;;;;12.89;87.17;102231.72;6237829;28;20232;-65
2021/11/19 09:55:19;;;;;;;11.20;7.40;;;;;;;12.67;87.92;102236.84;6237831;28;20228;-67
2021/11/19 09:58:49;;;;;;;8.47;5.43;;;;;;;12.76;87.53;102234.28;6237904;28;20239;-66
2021/11/19 10:02:49;;;;;;;13.30;7.50;;;;;;;13.14;85.76;102225.72;6241348;28;20877;-65
2021/11/19 10:06:15;;;;;;;10.73;6.30;;;;;;;13.11;85.94;102238.78;6210879;28;20224;-66
2021/11/19 10:09:48;;;;;;;13.73;7.17;;;;;;;13.10;84.96;102231.78;6233176;28;20228;-65
2021/11/19 10:13:16;;;;;;;12.13;7.07;;;;;;;13.01;85.87;102234.41;6236680;28;20201;-66
2021/11/19 10:16:49;;;;;;;9.97;7.50;;;;;;;12.81;86.21;102229.06;6234128;28;20200;-66
2021/11/19 10:20:14;;;;;;;8.17;6.27;;;;;;;13.44;84.65;102233.66;6234624;28;20232;-65
2021/11/19 10:23:38;;;;;;;9.63;6.23;;;;;;;13.72;81.81;102224.06;6234042;28;20555;-66
2021/11/19 10:26:59;;;;;;;7.33;6.63;;;;;;;13.43;82.57;102224.91;6238854;28;20280;-65
2021/11/19 10:30:31;;;;;;;8.33;5.37;;;;;;;13.32;83.61;102213.59;6241722;28;20645;-66
2021/11/19 10:34:13;;;;;;;11.60;5.93;;;;;;;13.22;83.79;102214.38;6244790;28;20229;-66
2021/11/19 10:38:16;;;;;;;10.50;6.77;;;;;;;13.29;83.08;102200.44;6243981;28;20193;-65
2021/11/19 10:42:04;;;;;;;9.90;6.03;;;;;;;13.28;83.91;102217.00;6241822;28;20229;-66
2021/11/19 10:45:45;;;;;;;7.10;5.27;;;;;;;13.59;82.13;102211.00;6243423;28;20225;-65
2021/11/19 10:49:37;;;;;;;6.03;4.37;;;;;;;13.73;80.96;102229.31;6242319;28;20522;-65
2021/11/19 10:53:28;;;;;;;9.83;5.07;;;;;;;13.25;82.87;102235.34;6239365;28;20196;-66
2021/11/19 10:56:57;;;;;;;18.80;6.93;;;;;;;13.44;82.67;102231.91;6244089;28;20601;-66
2021/11/19 11:00:28;;;;;;;9.70;4.83;;;;;;;13.30;82.71;102231.88;6241465;28;20778;-65
2021/11/19 11:04:04;;;;;;;7.53;5.93;;;;;;;13.39;81.90;102225.78;6242049;28;20295;-65
2021/11/19 11:07:30;;;;;;;7.47;5.50;;;;;;;13.48;81.49;102219.72;6241465;28;20209;-65
2021/11/19 11:10:53;;;;;;;7.37;4.87;;;;;;;13.37;82.09;102220.53;6240659;28;20224;-65
2021/11/19 11:14:20;;;;;;;10.90;7.57;;;;;;;13.32;82.93;102237.13;6237664;28;20229;-65
2021/11/19 11:17:54;;;;;;;12.50;7.97;;;;;;;13.45;81.88;102225.78;6241420;28;20196;-66
2021/11/19 11:21:26;;;;;;;11.47;5.97;;;;;;;13.43;82.49;102229.28;6235199;28;20298;-65
2021/11/19 11:24:52;;;;;;;13.80;7.77;;;;;;;13.33;82.79;102225.78;6233744;28;20243;-66
2021/11/19 11:28:17;;;;;;;8.67;6.43;;;;;;;13.43;82.07;102219.69;6240986;28;20193;-66
2021/11/19 11:31:48;;;;;;;18.97;15.73;;;;;;;13.15;83.07;102221.34;6232569;28;20619;-66
2021/11/19 11:35:18;;;;;;;13.87;9.50;;;;;;;13.36;82.43;102212.72;6231755;28;20220;-66
2021/11/19 11:38:53;;;;;;;15.77;11.93;;;;;;;13.48;82.39;102232.78;6221817;28;20240;-65
2021/11/19 11:42:24;;;;;;;11.07;7.07;;;;;;;13.34;82.28;102224.94;6224767;28;20583;-65
2021/11/19 11:45:49;;;;;;;13.10;6.77;;;;;;;13.55;81.53;102239.75;6233499;28;20248;-67
2021/11/19 11:49:18;;;;;;;9.87;6.17;;;;;;;13.45;82.24;102238.88;6233203;28;20618;-65
2021/11/19 11:52:59;;;;;;;16.77;6.70;;;;;;;13.67;81.04;102241.53;6222186;28;20197;-65
2021/11/19 11:56:25;;;;;;;10.37;5.70;;;;;;;13.48;81.29;102241.50;6233890;28;20224;-65
2021/11/19 11:59:55;;;;;;;9.43;5.77;;;;;;;13.77;79.75;102241.53;6237474;28;20232;-64
2021/11/19 12:03:29;;;;;;;12.30;6.80;;;;;;;13.59;80.39;102242.41;6234513;28;20295;-64
2021/11/19 12:06:55;;;;;;;17.63;6.10;;;;;;;13.44;82.21;102242.38;6235975;28;20526;-66
2021/11/19 12:10:29;;;;;;;15.00;6.57;;;;;;;13.19;83.18;102246.66;6239063;28;20601;-65
2021/11/19 12:13:54;;;;;;;13.03;6.57;;;;;;;13.37;81.34;102238.88;6228979;28;20323;-66
2021/11/19 12:17:27;;;;;;;9.07;6.13;;;;;;;13.09;81.95;102256.22;6229275;28;20208;-66
2021/11/19 12:21:01;;;;;;;15.77;6.40;;;;;;;13.65;80.69;102231.06;6233726;28;20244;-65
2021/11/19 12:24:27;;;;;;;14.67;5.43;;;;;;;13.58;80.60;102234.53;6232912;28;20236;-65
2021/11/19 12:27:52;;;;;;;15.20;6.30;;;;;;;13.49;80.28;102230.19;6236599;28;20511;-65
2021/11/19 12:31:18;;;;;;;12.83;6.10;;;;;;;13.76;78.90;102229.34;6233649;28;20313;-67
2021/11/19 12:34:47;;;;;;;15.10;6.33;;;;;;;13.67;79.04;102228.47;6233501;28;20645;-65
2021/11/19 12:38:14;;;;;;;11.93;6.13;;;;;;;13.07;81.62;102231.78;6236688;28;20197;-66
2021/11/19 12:41:41;;;;;;;11.67;4.27;;;;;;;13.47;80.21;102241.50;6229842;28;20213;-65
2021/11/19 12:45:17;;;;;;;15.03;6.07;;;;;;;13.06;81.33;102235.25;6234263;28;20216;-65
2021/11/19 12:49:12;;;;;;;9.70;4.83;;;;;;;13.34;81.64;102238.00;6223771;28;20617;-66
2021/11/19 12:52:38;;;;;;;12.90;5.77;;;;;;;13.71;79.51;102235.44;6229778;28;20208;-66
2021/11/19 12:56:09;;;;;;;8.30;5.07;;;;;;;13.41;81.13;102237.13;6222945;28;20204;-66
2021/11/19 12:59:48;;;;;;;16.93;5.77;;;;;;;13.26;81.81;102229.22;6226660;28;20228;-66
2021/11/19 13:03:21;;;;;;;12.13;6.17;;;;;;;13.34;81.23;102231.03;6227646;28;20538;-67
2021/11/19 13:06:45;;;;;;;15.93;6.20;;;;;;;13.02;82.51;102232.66;6230918;28;20232;-66
2021/11/19 13:10:49;;;;;;;17.07;8.97;;;;;;;13.27;81.34;102231.84;6225127;28;20220;-65
2021/11/19 13:14:40;;;;;;;17.17;8.13;;;;;;;13.14;81.69;102232.69;6232113;28;20220;-67
2021/11/19 13:18:10;;;;;;;27.07;11.87;;;;;;;13.42;80.79;102223.19;6226704;28;20299;-65
2021/11/19 13:21:45;;;;;;;15.77;7.83;;;;;;;13.53;79.56;102221.47;6230828;28;20653;-66
2021/11/19 13:25:40;;;;;;;12.33;5.67;;;;;;;13.07;80.97;102223.94;6229267;28;20236;-65
2021/11/19 13:29:06;;;;;;;11.33;5.60;;;;;;;13.14;80.13;102212.66;6233320;28;20260;-65
2021/11/19 13:33:12;;;;;;;19.40;5.70;;;;;;;13.33;79.71;102225.78;6220476;28;20284;-65
2021/11/19 13:36:39;;;;;;;18.50;6.33;;;;;;;13.36;79.98;102231.91;6236975;28;20574;-65
2021/11/19 13:40:33;;;;;;;31.70;9.90;;;;;;;13.29;79.23;102240.56;6228857;28;20326;-65
2021/11/19 13:43:56;;;;;;;12.80;6.07;;;;;;;13.24;79.65;102238.81;6226631;28;20323;-64
2021/11/19 13:47:39;;;;;;;14.83;5.40;;;;;;;13.23;79.25;102231.84;6231288;28;20286;-66
2021/11/19 13:51:25;;;;;;;11.03;4.67;;;;;;;13.22;78.60;102232.69;6202814;28;20224;-66
2021/11/19 13:54:46;;;;;;;14.73;5.33;;;;;;;13.25;78.78;102245.78;6228803;28;20228;-65
2021/11/19 13:58:27;;;;;;;13.00;4.93;;;;;;;13.27;78.59;102241.44;6229827;28;20217;-65
2021/11/19 14:01:55;;;;;;;12.80;4.13;;;;;;;13.27;78.04;102233.59;6224624;28;20208;-64
2021/11/19 14:05:19;;;;;;;19.53;5.57;;;;;;;13.45;77.22;102225.78;6227429;28;20235;-65
2021/11/19 14:08:52;;;;;;;12.60;4.57;;;;;;;13.59;76.68;102231.94;6233824;28;20242;-64
2021/11/19 14:12:18;;;;;;;9.67;3.60;;;;;;;13.52;77.00;102229.31;6233738;28;20228;-66
2021/11/19 14:15:40;;;;;;;9.03;3.63;;;;;;;13.41;76.59;102229.28;6237987;28;20240;-66
2021/11/19 14:19:11;;;;;;;12.00;3.80;;;;;;;13.61;75.77;102233.66;6236084;28;20224;-65
2021/11/19 14:22:40;;;;;;;16.23;4.17;;;;;;;13.32;77.44;102237.13;6239739;28;20196;-66
2021/11/19 14:26:05;;;;;;;13.17;3.70;;;;;;;13.36;76.63;102233.66;6230021;28;20220;-65
2021/11/19 14:29:29;;;;;;;13.10;4.27;;;;;;;13.55;75.94;102238.03;6237362;28;20876;-66
2021/11/19 14:32:53;;;;;;;5.53;2.80;;;;;;;13.67;75.30;102228.47;6239192;28;20205;-65
2021/11/19 14:36:28;;;;;;;13.37;4.17;;;;;;;13.63;75.93;102226.69;6241716;28;20225;-65
2021/11/19 14:39:51;;;;;;;9.07;3.40;;;;;;;13.44;76.14;102239.75;6239357;28;20315;-64
2021/11/19 14:43:15;;;;;;;10.60;3.00;;;;;;;13.60;75.58;102227.56;6239978;28;20212;-65
2021/11/19 14:46:41;;;;;;;9.87;4.20;;;;;;;13.62;75.42;102256.38;6236180;28;20200;-66
2021/11/19 14:50:10;;;;;;;15.20;4.10;;;;;;;13.35;76.08;102224.03;6232372;28;20232;-66
2021/11/19 14:53:46;;;;;;;8.50;3.80;;;;;;;13.53;76.37;102228.41;6231684;28;20224;-65
2021/11/19 14:57:20;;;;;;;10.33;3.63;;;;;;;13.71;75.52;102230.19;6234581;28;20213;-66
2021/11/19 15:00:46;;;;;;;16.03;4.97;;;;;;;13.38;76.46;102231.91;6237098;28;20701;-65
2021/11/19 15:04:17;;;;;;;11.03;7.03;;;;;;;13.64;75.85;102239.78;6236769;28;20264;-65
2021/11/19 15:07:49;;;;;;;12.00;4.60;;;;;;;13.77;75.64;102238.06;6236336;28;20212;-65
2021/11/19 15:11:25;;;;;;;11.27;4.33;;;;;;;13.88;75.15;102235.41;6232638;28;20315;-66
2021/11/19 15:14:53;;;;;;;9.83;2.90;;;;;;;13.50;76.10;102239.78;6226911;28;20232;-65
2021/11/19 15:18:26;;;;;;;13.50;3.93;;;;;;;13.51;76.47;102240.63;6232394;28;20201;-65
2021/11/19 15:21:59;;;;;;;13.90;5.13;;;;;;;13.59;76.48;102236.31;6233954;28;20210;-64
2021/11/19 15:25:34;;;;;;;8.47;3.13;;;;;;;13.49;76.81;102230.19;6227722;28;20232;-63
2021/11/19 15:29:16;;;;;;;9.77;3.83;;;;;;;13.39;76.73;102228.41;6233506;28;20224;-64
2021/11/19 15:32:41;;;;;;;9.03;2.67;;;;;;;13.49;76.29;102229.28;6233778;28;20204;-64
2021/11/19 15:36:13;;;;;;;13.90;4.37;;;;;;;13.42;77.41;102236.28;6233886;28;20246;-64
2021/11/19 15:39:34;;;;;;;10.37;3.93;;;;;;;13.41;76.65;102233.66;6236066;28;20236;-65
2021/11/19 15:42:59;;;;;;;11.77;3.47;;;;;;;13.49;76.13;102239.75;6232190;28;20201;-64
2021/11/19 15:46:26;;;;;;;16.43;4.73;;;;;;;13.41;77.33;102231.03;6240146;28;20570;-64
2021/11/19 15:49:50;;;;;;;10.63;4.07;;;;;;;13.47;76.89;102242.38;6238819;28;20229;-64
2021/11/19 15:53:26;;;;;;;9.53;5.50;;;;;;;13.71;75.97;102236.31;6239274;28;20205;-64
2021/11/19 15:57:16;;;;;;;14.87;4.23;;;;;;;13.39;77.10;102233.63;6237125;28;20233;-65